Time;durP1;ratioP1;P1;durP2;ratioP2;P2;SDS_P1;SDS_P2;PMS_P1;PMS_P2;Temp;Humidity;BMP_temperature;BMP_pressure;BME280_temperature;BME280_humidity;BME280_pressure;Samples;Min_cycle;Max_cycle;Signal;HPM_P1;HPM_P2
2021/05/06 00:07:53;;;;;;;5.55;2.40;;;;;;;17.05;56.48;101040.86;1742769;81;21181;-46
2021/05/06 00:32:05;;;;;;;9.53;2.72;;;;;;;17.04;56.45;101033.91;1760611;81;21282;-46
2021/05/06 00:34:33;;;;;;;8.10;2.45;;;;;;;17.04;56.38;101036.55;1761293;81;21283;-45
2021/05/06 00:37:02;;;;;;;10.68;2.37;;;;;;;17.02;56.42;101026.07;1729748;82;21169;-48
2021/05/06 00:42:22;;;;;;;13.70;3.05;;;;;;;17.05;56.50;101021.15;1774952;79;22965;-50
2021/05/06 01:09:22;;;;;;;7.92;2.40;;;;;;;16.90;56.55;101006.03;1776892;80;21548;-50
2021/05/06 01:12:04;;;;;;;8.20;2.77;;;;;;;16.90;56.84;101000.78;1762664;81;21124;-49
2021/05/06 01:14:33;;;;;;;7.42;2.33;;;;;;;16.90;56.98;101000.78;1776526;80;21162;-49
2021/05/06 01:17:01;;;;;;;7.28;2.55;;;;;;;16.91;56.93;100998.56;1751215;81;21156;-46
2021/05/06 01:19:29;;;;;;;7.72;3.02;;;;;;;16.92;56.90;101005.05;1755614;81;21155;-49
2021/05/06 01:21:58;;;;;;;8.58;2.02;;;;;;;16.92;56.86;100997.62;1776704;80;21116;-49
2021/05/06 01:24:26;;;;;;;5.28;2.40;;;;;;;16.93;56.77;100998.03;1761565;81;21152;-49
2021/05/06 01:27:06;;;;;;;7.20;2.85;;;;;;;16.90;56.76;100992.44;1776625;80;21179;-51
2021/05/06 01:32:22;;;;;;;10.20;2.92;;;;;;;16.93;56.72;100982.26;1832237;77;23736;-51
2021/05/06 01:34:54;;;;;;;6.37;2.37;;;;;;;16.88;56.67;100976.34;1806891;78;21212;-48
2021/05/06 01:40:12;;;;;;;5.37;1.62;;;;;;;16.90;56.71;100979.75;1773364;79;22947;-47
2021/05/06 01:48:06;;;;;;;7.80;2.33;;;;;;;16.83;56.56;100978.33;1776417;80;21176;-49
2021/05/06 02:01:15;;;;;;;7.95;2.72;;;;;;;16.75;56.46;100975.19;1741961;81;21602;-49
2021/05/06 02:03:44;;;;;;;6.28;2.27;;;;;;;16.74;56.53;100974.33;1742913;81;21299;-46
2021/05/06 02:06:12;;;;;;;8.53;2.40;;;;;;;16.74;56.71;100973.46;1713765;82;21794;-47
2021/05/06 02:08:40;;;;;;;11.55;2.27;;;;;;;16.72;56.77;100978.80;1723666;83;21609;-48
2021/05/06 02:11:10;;;;;;;8.20;2.60;;;;;;;16.71;56.59;100973.61;1727863;82;21172;-50
2021/05/06 02:13:57;;;;;;;8.25;2.75;;;;;;;16.74;56.53;100965.58;1802052;79;22934;-49
2021/05/06 02:16:36;;;;;;;7.20;2.20;;;;;;;16.71;56.37;100969.67;1789580;80;21140;-47
2021/05/06 02:19:02;;;;;;;7.40;2.62;;;;;;;16.71;56.26;100972.30;1730336;81;21196;-49
2021/05/06 02:21:30;;;;;;;6.87;2.02;;;;;;;16.75;56.17;100976.50;1738198;81;21190;-49
2021/05/06 02:24:02;;;;;;;12.28;3.55;;;;;;;16.78;56.05;100975.03;1713957;83;21148;-50
2021/05/06 02:26:30;;;;;;;8.63;2.72;;;;;;;16.79;56.10;100980.70;1724830;83;21630;-51
2021/05/06 02:28:58;;;;;;;8.70;2.70;;;;;;;16.78;56.29;100975.90;1757618;81;21181;-47
2021/05/06 02:31:27;;;;;;;5.37;1.80;;;;;;;16.79;56.18;100979.39;1750217;81;21318;-47
2021/05/06 02:33:56;;;;;;;11.83;2.42;;;;;;;16.79;55.97;100971.50;1756342;81;21171;-51
2021/05/06 02:36:24;;;;;;;7.70;2.72;;;;;;;16.80;55.98;100978.45;1721255;83;21167;-51
2021/05/06 02:38:55;;;;;;;6.17;2.55;;;;;;;16.80;56.06;100981.08;1756733;81;21140;-49
2021/05/06 02:41:23;;;;;;;7.67;2.72;;;;;;;16.80;56.16;100979.77;1726378;83;21154;-52
2021/05/06 02:43:51;;;;;;;7.55;2.05;;;;;;;16.78;56.28;100986.86;1758912;81;21184;-46
2021/05/06 02:46:19;;;;;;;7.30;2.30;;;;;;;16.77;56.25;100993.05;1757836;81;21192;-49
2021/05/06 02:48:48;;;;;;;4.55;2.00;;;;;;;16.78;56.24;100996.06;1716181;83;21587;-47
2021/05/06 02:51:17;;;;;;;13.95;3.33;;;;;;;16.78;56.07;101001.31;1753037;81;21153;-47
2021/05/06 02:56:37;;;;;;;9.70;3.00;;;;;;;16.84;55.97;100995.79;1782408;78;28140;-46
2021/05/06 03:04:27;;;;;;;10.13;2.92;;;;;;;16.86;55.87;100993.95;1741346;82;21113;-48
2021/05/06 03:06:59;;;;;;;10.38;2.72;;;;;;;16.86;55.88;100995.27;1741325;82;21135;-49
2021/05/06 03:22:58;;;;;;;8.53;2.77;;;;;;;16.87;55.77;101010.99;1728605;82;21176;-49
2021/05/06 03:25:25;;;;;;;8.45;2.58;;;;;;;16.89;55.63;101017.48;1738566;82;21197;-51
2021/05/06 03:31:02;;;;;;;12.73;2.80;;;;;;;16.93;55.63;101017.30;1771615;79;22975;-44
2021/05/06 03:41:39;;;;;;;5.30;2.10;;;;;;;16.94;55.94;101033.89;1739511;82;21140;-49
2021/05/06 04:37:45;;;;;;;15.53;6.72;;;;;;;17.52;55.48;101068.57;1746681;82;21986;-52
2021/05/06 04:54:20;;;;;;;12.13;3.45;;;;;;;17.84;54.71;101058.75;1740955;81;21163;-45
2021/05/06 04:59:30;;;;;;;9.10;3.47;;;;;;;17.99;54.33;101053.69;1740613;81;21289;-46
2021/05/06 05:04:32;;;;;;;9.05;3.12;;;;;;;18.08;54.06;101045.33;1747503;81;21171;-47
2021/05/06 05:07:20;;;;;;;8.95;3.20;;;;;;;18.10;53.97;101046.11;1760394;81;21120;-48
2021/05/06 05:17:51;;;;;;;8.23;2.80;;;;;;;18.32;53.59;101054.22;1746055;81;21139;-46
2021/05/06 05:25:38;;;;;;;9.08;2.58;;;;;;;18.41;53.45;101048.52;1731545;81;21573;-49
2021/05/06 05:28:07;;;;;;;5.78;2.37;;;;;;;18.38;53.57;101038.11;1749586;81;21159;-48
2021/05/06 05:30:39;;;;;;;4.87;2.08;;;;;;;18.46;53.56;101039.10;1740383;81;21162;-48
2021/05/06 05:33:12;;;;;;;5.65;2.20;;;;;;;18.62;53.16;101040.03;1738815;81;21599;-50
2021/05/06 05:46:48;;;;;;;6.05;2.05;;;;;;;19.26;51.17;101046.34;1819400;78;21120;-46
2021/05/06 05:56:46;;;;;;;7.15;2.30;;;;;;;19.77;49.66;101040.53;1805868;78;21281;-45
2021/05/06 05:59:15;;;;;;;7.53;2.30;;;;;;;20.00;49.17;101057.28;1815155;78;21147;-47
2021/05/06 06:01:44;;;;;;;8.08;2.50;;;;;;;20.17;48.82;101055.88;1821972;78;21124;-45
2021/05/06 06:04:12;;;;;;;10.20;2.83;;;;;;;20.28;48.48;101055.30;1816624;78;21104;-51
2021/05/06 06:06:41;;;;;;;7.87;2.30;;;;;;;20.32;48.21;101058.98;1802838;78;21151;-45
2021/05/06 06:09:09;;;;;;;8.08;2.98;;;;;;;20.31;48.19;101059.94;1826263;78;21160;-48
2021/05/06 06:11:37;;;;;;;5.72;2.20;;;;;;;20.26;48.16;101061.97;1807295;78;21135;-48
2021/05/06 06:14:08;;;;;;;10.00;2.67;;;;;;;20.21;48.22;101067.55;1824796;78;21131;-48
2021/05/06 06:16:39;;;;;;;6.83;2.90;;;;;;;20.15;48.25;101074.92;1821174;78;21182;-45
2021/05/06 06:19:07;;;;;;;6.07;3.07;;;;;;;20.08;48.43;101082.80;1821730;78;21136;-48
2021/05/06 06:24:07;;;;;;;10.18;3.50;;;;;;;20.07;48.76;101085.08;1823157;78;21088;-45
2021/05/06 06:26:36;;;;;;;11.70;3.60;;;;;;;20.24;48.62;101084.53;1822402;78;21152;-45
2021/05/06 06:29:08;;;;;;;11.18;3.50;;;;;;;20.46;48.32;101085.51;1824628;78;21148;-48
2021/05/06 06:34:07;;;;;;;10.30;3.22;;;;;;;20.87;47.35;101083.95;1825659;78;21152;-49
2021/05/06 06:36:35;;;;;;;19.65;4.85;;;;;;;21.00;46.83;101090.20;1808899;78;21156;-49
2021/05/06 06:39:05;;;;;;;13.20;5.30;;;;;;;21.12;46.73;101089.13;1810777;79;21155;-48
2021/05/06 06:41:34;;;;;;;9.53;3.80;;;;;;;21.21;46.53;101093.86;1811404;78;21293;-50
2021/05/06 06:44:04;;;;;;;9.10;3.17;;;;;;;21.30;46.37;101090.67;1804372;79;21120;-46
2021/05/06 06:46:32;;;;;;;12.33;3.58;;;;;;;21.42;46.32;101092.56;1809952;79;21108;-46
2021/05/06 06:49:01;;;;;;;9.93;3.83;;;;;;;21.57;46.05;101088.98;1806485;79;21159;-49
2021/05/06 06:51:31;;;;;;;10.08;4.08;;;;;;;21.76;45.70;101090.87;1803420;79;21597;-45
2021/05/06 06:53:59;;;;;;;11.43;4.30;;;;;;;21.95;45.36;101090.11;1807636;79;21135;-47
2021/05/06 06:56:27;;;;;;;7.67;3.27;;;;;;;22.19;44.89;101088.56;1743766;82;21181;-46
2021/05/06 06:58:56;;;;;;;11.80;3.05;;;;;;;22.43;44.17;101097.57;1768213;80;21149;-48
2021/05/06 07:01:28;;;;;;;8.73;3.15;;;;;;;22.58;43.74;101100.59;1749808;81;21136;-45
2021/05/06 07:03:56;;;;;;;7.08;2.42;;;;;;;22.73;43.29;101100.52;1753972;81;21140;-47
2021/05/06 07:06:25;;;;;;;12.03;4.03;;;;;;;22.89;43.04;101105.17;1759012;81;21195;-49
2021/05/06 07:08:54;;;;;;;7.37;3.00;;;;;;;23.04;42.71;101118.74;1760768;81;21567;-47
2021/05/06 07:11:22;;;;;;;6.35;2.50;;;;;;;23.18;42.06;101125.29;1760761;81;21108;-45
2021/05/06 07:13:52;;;;;;;14.68;4.22;;;;;;;23.22;41.75;101130.77;1764661;81;21175;-45
2021/05/06 07:16:21;;;;;;;11.08;3.87;;;;;;;23.25;41.82;101128.73;1768243;81;21164;-46
2021/05/06 07:18:49;;;;;;;10.35;3.37;;;;;;;23.27;41.74;101125.97;1762091;81;21137;-48
2021/05/06 07:21:18;;;;;;;12.10;3.27;;;;;;;23.29;41.79;101124.06;1760068;81;21181;-46
2021/05/06 07:23:46;;;;;;;7.78;2.40;;;;;;;23.34;41.74;101132.61;1764336;81;21581;-45
2021/05/06 07:26:16;;;;;;;10.78;2.70;;;;;;;23.38;41.45;101130.11;1756843;81;21271;-49
2021/05/06 07:28:47;;;;;;;8.20;2.47;;;;;;;23.31;41.40;101127.45;1767394;81;21659;-45
2021/05/06 07:31:17;;;;;;;8.47;2.47;;;;;;;23.14;41.92;101121.14;1738271;80;21164;-44
2021/05/06 07:33:48;;;;;;;14.33;3.87;;;;;;;23.14;41.92;101121.14;1805437;79;22082;-47
2021/05/06 07:36:19;;;;;;;;;;;;;;;23.06;41.88;101124.80;1809223;79;21128;-48
2021/05/06 07:38:49;;;;;;;13.85;4.12;;;;;;;22.92;42.14;101127.50;1814873;79;20164;-50
2021/05/06 07:41:19;;;;;;;13.10;4.35;;;;;;;22.74;42.47;101127.41;1814821;79;21136;-47
2021/05/06 07:43:49;;;;;;;13.25;4.80;;;;;;;22.59;42.85;101122.63;1818113;79;21560;-49
2021/05/06 07:46:20;;;;;;;12.47;4.10;;;;;;;22.47;43.25;101132.22;1745901;82;21643;-46
2021/05/06 07:48:53;;;;;;;12.03;3.67;;;;;;;22.43;43.24;101129.86;1742904;82;21198;-51
2021/05/06 07:51:23;;;;;;;8.10;3.47;;;;;;;22.35;43.41;101121.08;1768079;81;21652;-45
2021/05/06 07:53:54;;;;;;;13.28;3.55;;;;;;;22.25;43.59;101127.93;1755425;81;21706;-45
2021/05/06 07:56:25;;;;;;;5.03;2.77;;;;;;;22.13;43.92;101132.69;1755866;81;21754;-48
2021/05/06 07:58:53;;;;;;;7.53;2.47;;;;;;;22.00;44.36;101137.05;1762106;81;21161;-46
2021/05/06 08:01:21;;;;;;;6.62;2.52;;;;;;;21.87;44.62;101138.75;1754045;81;21156;-46
2021/05/06 08:03:52;;;;;;;5.40;2.30;;;;;;;21.76;44.90;101137.23;1765856;81;21139;-49
2021/05/06 08:06:20;;;;;;;12.70;3.25;;;;;;;21.65;45.34;101135.70;1759176;81;21266;-49
2021/05/06 08:08:52;;;;;;;9.50;2.85;;;;;;;21.59;45.60;101146.67;1765550;81;21175;-44
2021/05/06 08:11:19;;;;;;;7.78;2.33;;;;;;;21.46;45.91;101129.82;1766690;81;21155;-50
2021/05/06 08:13:49;;;;;;;7.72;2.25;;;;;;;21.37;46.03;101135.69;1758675;81;21579;-49
2021/05/06 08:16:17;;;;;;;8.95;2.47;;;;;;;21.34;46.38;101143.80;1759910;81;21607;-48
2021/05/06 08:18:46;;;;;;;4.78;1.80;;;;;;;21.31;46.60;101133.41;1755364;81;21140;-50
2021/05/06 08:21:19;;;;;;;4.72;2.02;;;;;;;21.29;46.64;101128.69;1768670;81;21296;-48
2021/05/06 08:23:49;;;;;;;7.20;2.50;;;;;;;21.29;46.75;101135.30;1754765;81;21152;-47
2021/05/06 08:26:18;;;;;;;4.17;2.05;;;;;;;21.27;46.80;101133.22;1752456;81;21160;-47
2021/05/06 08:28:48;;;;;;;8.40;1.92;;;;;;;21.24;46.79;101141.33;1744876;81;21601;-49
2021/05/06 08:31:16;;;;;;;5.40;2.08;;;;;;;21.20;47.00;101134.52;1751529;81;21112;-51
2021/05/06 08:33:44;;;;;;;6.50;2.65;;;;;;;21.13;47.10;101123.90;1765896;81;21171;-47
2021/05/06 08:36:13;;;;;;;10.70;2.60;;;;;;;21.08;47.40;101122.02;1761952;81;21148;-49
2021/05/06 08:38:41;;;;;;;7.83;2.80;;;;;;;21.08;47.55;101123.34;1760224;81;21195;-45
2021/05/06 08:41:09;;;;;;;8.85;1.92;;;;;;;21.06;47.78;101124.27;1815751;79;21124;-49
2021/05/06 08:43:40;;;;;;;5.65;2.15;;;;;;;21.08;47.81;101127.67;1808849;79;21143;-51
2021/05/06 08:46:09;;;;;;;9.13;2.45;;;;;;;21.10;47.90;101121.45;1793197;79;21262;-47
2021/05/06 08:48:40;;;;;;;3.10;1.95;;;;;;;21.15;47.79;101120.23;1798855;79;21191;-48
2021/05/06 08:51:09;;;;;;;6.53;2.77;;;;;;;21.20;47.72;101121.28;1816585;79;21321;-50
2021/05/06 08:53:39;;;;;;;8.50;2.75;;;;;;;21.26;47.65;101117.80;1814862;78;21097;-47
2021/05/06 08:56:07;;;;;;;8.88;2.77;;;;;;;21.34;47.66;101121.30;1806234;79;21609;-47
2021/05/06 08:58:38;;;;;;;7.40;2.72;;;;;;;21.39;47.49;101120.56;1748180;82;21434;-46
2021/05/06 09:01:06;;;;;;;6.22;2.17;;;;;;;21.43;47.41;101124.73;1797241;79;21143;-48
2021/05/06 09:03:35;;;;;;;6.20;2.60;;;;;;;21.45;47.48;101128.96;1806886;79;21088;-49
2021/05/06 09:06:17;;;;;;;9.73;2.60;;;;;;;21.48;47.63;101131.91;1792282;79;21104;-49
2021/05/06 09:08:56;;;;;;;7.90;2.42;;;;;;;21.53;47.60;101126.73;1804021;79;21128;-49
2021/05/06 09:11:35;;;;;;;5.85;2.08;;;;;;;21.62;47.36;101129.26;1809305;79;21132;-53
2021/05/06 09:14:05;;;;;;;5.13;2.47;;;;;;;21.66;47.15;101134.74;1808289;79;21148;-49
2021/05/06 09:19:35;;;;;;;6.72;2.12;;;;;;;21.69;47.16;101134.57;1787179;78;22660;-49
2021/05/06 09:22:04;;;;;;;4.87;2.08;;;;;;;21.64;47.24;101139.28;1737639;81;21313;-49
2021/05/06 09:24:36;;;;;;;5.08;2.80;;;;;;;21.64;47.23;101140.14;1731684;81;21577;-48
2021/05/06 09:27:04;;;;;;;7.25;2.30;;;;;;;21.65;47.28;101138.36;1716375;82;21512;-48
2021/05/06 09:29:35;;;;;;;;;;;;;;;21.65;47.29;101135.24;1726939;82;21212;-49
2021/05/06 09:32:15;;;;;;;5.92;1.80;;;;;;;21.69;47.24;101152.65;1699587;83;20217;-49
2021/05/06 09:34:54;;;;;;;8.70;2.77;;;;;;;21.75;47.13;101158.03;1806593;79;22677;-50
2021/05/06 09:37:31;;;;;;;8.28;2.70;;;;;;;21.71;47.05;101155.19;1770286;80;21584;-48
2021/05/06 09:40:09;;;;;;;4.42;2.02;;;;;;;21.72;47.13;101158.23;1777392;80;21163;-48
2021/05/06 09:42:41;;;;;;;7.25;2.50;;;;;;;21.74;47.14;101153.70;1733784;82;21216;-47
2021/05/06 09:45:24;;;;;;;8.60;2.73;;;;;;;21.77;47.10;101156.14;1704335;84;21164;-50
2021/05/06 09:48:13;;;;;;;5.62;2.80;;;;;;;21.80;47.19;101162.09;1726114;82;21152;-46
2021/05/06 09:50:44;;;;;;;8.35;2.70;;;;;;;21.84;47.13;101168.11;1730669;82;21136;-47
2021/05/06 09:53:21;;;;;;;9.30;2.42;;;;;;;21.94;47.00;101159.10;1804452;79;22176;-48
2021/05/06 09:55:49;;;;;;;11.97;3.00;;;;;;;21.94;47.01;101166.59;1763950;80;21136;-47
2021/05/06 09:58:19;;;;;;;5.97;2.58;;;;;;;22.01;46.77;101173.19;1767706;80;21131;-45
2021/05/06 10:00:48;;;;;;;8.10;3.45;;;;;;;22.05;46.60;101164.09;1763165;80;21580;-46
2021/05/06 10:03:19;;;;;;;6.17;2.83;;;;;;;22.09;46.60;101173.56;1761085;80;21150;-49
2021/05/06 10:05:49;;;;;;;7.72;2.37;;;;;;;22.11;46.42;101179.64;1739029;81;21188;-53
2021/05/06 10:08:18;;;;;;;7.75;2.50;;;;;;;22.11;46.32;101174.81;1742645;81;21312;-46
2021/05/06 10:10:46;;;;;;;9.23;3.02;;;;;;;22.06;46.34;101176.42;1746949;81;21089;-45
2021/05/06 10:13:15;;;;;;;4.40;2.50;;;;;;;22.01;46.48;101185.11;1734179;81;21402;-51
2021/05/06 10:15:45;;;;;;;5.83;2.20;;;;;;;21.96;46.64;101188.54;1737222;81;21218;-50
2021/05/06 10:18:16;;;;;;;6.17;2.60;;;;;;;21.89;47.00;101191.17;1735715;81;21144;-44
2021/05/06 10:20:43;;;;;;;8.10;2.92;;;;;;;21.83;47.07;101186.25;1733624;81;21151;-51
2021/05/06 10:23:14;;;;;;;11.43;3.15;;;;;;;21.77;47.30;101187.92;1743877;81;21116;-47
2021/05/06 10:25:41;;;;;;;9.85;3.08;;;;;;;21.70;47.55;101183.47;1738937;79;21188;-45
2021/05/06 10:28:10;;;;;;;7.20;2.60;;;;;;;21.67;47.62;101186.78;1730264;81;21196;-50
2021/05/06 10:30:38;;;;;;;6.17;2.27;;;;;;;21.63;47.81;101185.27;1744576;81;21354;-49
2021/05/06 10:33:06;;;;;;;6.12;2.27;;;;;;;21.62;47.80;101184.88;1742849;81;21199;-47
2021/05/06 10:35:35;;;;;;;8.10;2.58;;;;;;;21.60;47.90;101186.30;1743386;81;21164;-47
2021/05/06 10:38:03;;;;;;;5.95;2.17;;;;;;;21.59;48.01;101186.40;1742723;81;21144;-45
2021/05/06 10:40:38;;;;;;;6.70;2.33;;;;;;;21.59;48.02;101191.70;1739451;81;21187;-46
2021/05/06 10:43:27;;;;;;;6.65;2.20;;;;;;;21.58;48.07;101188.19;1743652;81;21167;-49
2021/05/06 10:46:04;;;;;;;7.80;2.33;;;;;;;21.65;48.03;101178.08;1771579;79;22966;-45
2021/05/06 10:49:02;;;;;;;7.62;2.52;;;;;;;21.68;47.84;101179.20;1741488;82;21151;-47
2021/05/06 10:51:43;;;;;;;13.15;2.65;;;;;;;21.69;47.83;101183.57;1739565;82;21621;-45
2021/05/06 10:54:28;;;;;;;6.20;2.10;;;;;;;21.67;47.90;101181.48;1728933;82;21144;-48
2021/05/06 10:56:58;;;;;;;5.30;2.95;;;;;;;21.67;48.00;101186.78;1740350;82;21169;-47
2021/05/06 10:59:29;;;;;;;10.03;2.47;;;;;;;21.65;48.06;101189.53;1734811;82;21168;-48
2021/05/06 11:01:59;;;;;;;6.75;2.52;;;;;;;21.63;48.16;101190.10;1686070;84;21210;-48
2021/05/06 11:04:42;;;;;;;3.72;2.08;;;;;;;21.61;48.25;101181.86;1686785;83;21574;-47
2021/05/06 11:07:22;;;;;;;6.83;1.87;;;;;;;21.61;48.35;101181.86;1667363;85;21158;-47
2021/05/06 11:09:55;;;;;;;11.12;3.00;;;;;;;21.59;48.33;101174.02;1681620;85;21579;-50
2021/05/06 11:12:29;;;;;;;4.67;1.80;;;;;;;21.61;48.40;101171.27;1628683;87;21184;-48
2021/05/06 11:15:08;;;;;;;8.05;2.77;;;;;;;21.64;48.32;101165.77;1763344;79;22319;-45
2021/05/06 11:17:42;;;;;;;4.15;2.17;;;;;;;21.62;48.28;101178.25;1738291;82;21146;-49
2021/05/06 11:20:16;;;;;;;8.48;2.52;;;;;;;21.61;48.24;101185.84;1737867;81;21164;-50
2021/05/06 11:22:54;;;;;;;6.80;2.30;;;;;;;21.58;48.29;101182.03;1730114;82;21274;-49
2021/05/06 11:25:38;;;;;;;6.75;2.85;;;;;;;21.52;48.39;101191.20;1736323;82;21569;-49
2021/05/06 11:28:22;;;;;;;16.35;3.05;;;;;;;21.52;48.41;101191.67;1736529;82;21177;-45
2021/05/06 11:30:53;;;;;;;8.10;2.60;;;;;;;21.49;48.54;101186.11;1740073;82;21101;-47
2021/05/06 11:33:25;;;;;;;9.30;2.52;;;;;;;21.47;48.71;101182.70;1739211;82;21577;-47
2021/05/06 11:36:14;;;;;;;10.03;2.20;;;;;;;21.49;48.74;101190.55;1738191;82;21161;-48
2021/05/06 11:38:46;;;;;;;6.62;2.80;;;;;;;21.50;48.79;101196.20;1735969;82;21286;-47
2021/05/06 11:41:22;;;;;;;10.82;2.60;;;;;;;21.54;48.86;101189.78;1737649;82;21609;-49
2021/05/06 11:43:58;;;;;;;8.18;2.65;;;;;;;21.57;48.91;101194.45;1738514;82;21609;-47
2021/05/06 11:46:32;;;;;;;6.65;2.72;;;;;;;21.65;48.63;101196.62;1738015;82;21160;-48
2021/05/06 11:49:03;;;;;;;11.43;4.17;;;;;;;21.66;48.57;101193.02;1737570;82;21295;-48
2021/05/06 11:51:35;;;;;;;8.98;3.12;;;;;;;21.66;48.55;101191.22;1729181;82;21172;-53
2021/05/06 11:54:19;;;;;;;7.90;2.70;;;;;;;21.63;48.76;101195.86;1741242;82;21576;-49
2021/05/06 11:56:59;;;;;;;9.93;2.80;;;;;;;21.61;48.72;101192.45;1729932;82;21157;-45
2021/05/06 11:59:30;;;;;;;4.85;2.10;;;;;;;21.58;48.85;101201.43;1736443;82;21560;-49
2021/05/06 12:02:06;;;;;;;7.60;2.85;;;;;;;21.57;48.99;101204.18;1734743;82;21145;-50
2021/05/06 12:04:36;;;;;;;6.60;2.40;;;;;;;21.56;49.11;101201.13;1741407;80;21577;-48
2021/05/06 12:07:16;;;;;;;5.83;2.70;;;;;;;21.54;49.20;101197.27;1744134;82;21153;-48
2021/05/06 12:09:44;;;;;;;10.65;2.65;;;;;;;21.55;49.22;101192.36;1678312;85;21211;-48
2021/05/06 12:12:26;;;;;;;5.72;2.72;;;;;;;21.58;49.25;101187.33;1698787;83;21579;-47
2021/05/06 12:14:58;;;;;;;5.62;2.00;;;;;;;21.59;49.24;101186.40;1692708;83;21167;-49
2021/05/06 12:17:26;;;;;;;9.83;2.80;;;;;;;21.58;49.29;101188.66;1687409;84;21152;-49
2021/05/06 12:19:58;;;;;;;14.53;2.52;;;;;;;21.47;49.54;101185.82;1688118;84;21188;-48
2021/05/06 12:22:28;;;;;;;8.15;2.20;;;;;;;21.41;49.69;101184.86;1658945;85;21164;-48
2021/05/06 12:24:56;;;;;;;8.00;2.25;;;;;;;21.37;49.74;101184.66;1728957;82;21740;-48
2021/05/06 12:27:29;;;;;;;8.25;2.58;;;;;;;21.34;49.91;101183.51;1665580;84;21203;-48
2021/05/06 12:30:02;;;;;;;9.05;2.55;;;;;;;21.31;49.99;101179.73;1676183;84;21149;-48
2021/05/06 12:35:04;;;;;;;10.00;3.10;;;;;;;21.26;50.25;101174.70;1603205;88;21205;-47
2021/05/06 12:37:41;;;;;;;10.90;3.33;;;;;;;21.31;50.28;101183.70;1786457;79;28420;-48
2021/05/06 12:40:13;;;;;;;6.70;2.30;;;;;;;21.28;50.34;101184.73;1740923;82;21196;-48
2021/05/06 12:42:41;;;;;;;7.37;2.45;;;;;;;21.36;50.19;101186.91;1737437;82;21152;-45
2021/05/06 12:45:21;;;;;;;7.62;2.50;;;;;;;21.37;50.17;101184.66;1739252;82;21531;-47
2021/05/06 12:47:49;;;;;;;9.18;2.65;;;;;;;21.38;50.15;101189.00;1740651;81;21172;-46
2021/05/06 12:50:26;;;;;;;5.85;2.75;;;;;;;21.38;50.16;101194.30;1727259;82;21183;-47
2021/05/06 12:53:08;;;;;;;7.17;2.95;;;;;;;21.38;50.29;101199.13;1745052;81;21160;-46
2021/05/06 12:55:41;;;;;;;8.68;2.95;;;;;;;21.41;50.14;101194.13;1677069;85;21335;-45
2021/05/06 12:58:19;;;;;;;7.08;2.67;;;;;;;21.38;50.19;101194.30;1667857;85;21328;-47
2021/05/06 13:00:58;;;;;;;5.87;2.27;;;;;;;21.36;50.47;101192.21;1671044;85;21331;-45
2021/05/06 13:03:42;;;;;;;6.03;2.27;;;;;;;21.32;50.80;101189.37;1681483;85;21130;-46
2021/05/06 13:06:12;;;;;;;;;;;;;;;21.30;51.06;101197.87;1651252;86;21332;-49
2021/05/06 13:08:47;;;;;;;7.90;2.33;;;;;;;21.33;51.13;101197.70;1802853;79;22903;-46
2021/05/06 13:11:21;;;;;;;6.58;2.62;;;;;;;21.27;51.25;101202.04;1783894;80;21140;-49
2021/05/06 13:13:52;;;;;;;8.68;2.70;;;;;;;21.30;51.35;101197.87;1736727;81;21284;-45
2021/05/06 13:16:49;;;;;;;8.90;3.40;;;;;;;21.35;51.32;101189.20;1728731;82;21164;-47
2021/05/06 13:19:24;;;;;;;8.18;2.45;;;;;;;21.42;50.91;101190.52;1721596;82;21150;-49
2021/05/06 13:21:54;;;;;;;9.53;3.10;;;;;;;21.44;50.69;101196.58;1724627;82;21302;-46
2021/05/06 13:24:22;;;;;;;6.33;1.95;;;;;;;21.42;50.69;101193.17;1722864;82;21163;-45
2021/05/06 13:26:50;;;;;;;10.85;2.40;;;;;;;21.37;50.72;101196.58;1733879;82;21620;-48
2021/05/06 13:29:21;;;;;;;6.45;3.12;;;;;;;21.33;50.75;101189.77;1725995;82;21307;-47
2021/05/06 13:31:51;;;;;;;13.10;2.58;;;;;;;21.27;50.83;101185.66;1733692;82;21176;-48
2021/05/06 13:34:27;;;;;;;10.78;2.83;;;;;;;21.21;51.12;101185.16;1745952;81;21157;-48
2021/05/06 13:37:03;;;;;;;7.20;2.45;;;;;;;21.16;51.30;101187.25;1724354;83;21197;-49
2021/05/06 13:39:33;;;;;;;8.08;2.62;;;;;;;21.13;51.42;101180.80;1748769;81;21614;-50
2021/05/06 13:42:02;;;;;;;6.00;2.10;;;;;;;21.11;51.48;101186.65;1726227;83;21174;-46
2021/05/06 13:44:31;;;;;;;10.63;2.77;;;;;;;21.09;51.59;101190.72;1722767;83;21137;-49
2021/05/06 13:47:02;;;;;;;5.08;2.47;;;;;;;21.08;51.62;101186.84;1717941;83;21169;-50
2021/05/06 13:49:31;;;;;;;8.83;2.65;;;;;;;21.07;51.60;101192.59;1718963;83;21175;-48
2021/05/06 13:52:01;;;;;;;14.30;2.70;;;;;;;21.05;51.68;101191.84;1713781;83;21128;-48
2021/05/06 13:54:29;;;;;;;8.75;2.60;;;;;;;21.05;51.79;101186.55;1745752;81;21632;-46
2021/05/06 13:56:58;;;;;;;6.70;2.92;;;;;;;21.03;51.85;101184.00;1744192;81;21298;-45
2021/05/06 13:59:26;;;;;;;6.40;2.30;;;;;;;21.00;51.99;101180.62;1713803;83;21195;-46
2021/05/06 14:01:56;;;;;;;4.50;2.15;;;;;;;20.96;52.01;101174.66;1725567;83;21175;-48
2021/05/06 14:04:25;;;;;;;9.20;2.85;;;;;;;20.96;52.12;101177.77;1715612;83;21203;-48
2021/05/06 14:06:53;;;;;;;8.90;2.87;;;;;;;20.97;52.23;101176.38;1729426;81;21150;-46
2021/05/06 14:09:23;;;;;;;7.17;3.02;;;;;;;21.06;52.14;101185.13;1699451;84;21176;-47
2021/05/06 14:11:51;;;;;;;10.03;3.20;;;;;;;21.14;52.03;101182.05;1739089;82;21224;-48
2021/05/06 14:14:19;;;;;;;8.40;3.25;;;;;;;21.23;51.80;101181.95;1742473;82;21157;-48
2021/05/06 14:16:48;;;;;;;6.00;2.87;;;;;;;21.30;51.50;101179.34;1740278;82;21593;-46
2021/05/06 14:19:17;;;;;;;12.82;3.45;;;;;;;21.35;51.35;101174.14;1742899;82;21149;-46
2021/05/06 14:21:51;;;;;;;9.65;3.70;;;;;;;21.41;51.25;101179.07;1742179;82;21180;-48
2021/05/06 14:24:18;;;;;;;11.40;2.85;;;;;;;21.45;51.19;101175.80;1659106;85;21208;-47
2021/05/06 14:26:50;;;;;;;10.10;3.05;;;;;;;21.49;51.01;101177.31;1743480;82;21181;-46
2021/05/06 14:29:19;;;;;;;8.70;3.17;;;;;;;21.54;50.96;101173.89;1739110;82;21137;-49
2021/05/06 14:31:47;;;;;;;12.30;2.90;;;;;;;21.60;50.86;101173.52;1656719;86;21160;-46
2021/05/06 14:34:16;;;;;;;8.45;3.12;;;;;;;21.65;50.72;101183.38;1744241;82;21168;-48
2021/05/06 14:36:45;;;;;;;9.90;3.42;;;;;;;21.67;50.61;101182.34;1743734;82;21149;-48
2021/05/06 14:39:14;;;;;;;9.78;3.22;;;;;;;21.68;50.52;101173.91;1744773;82;21122;-46
2021/05/06 14:41:42;;;;;;;7.58;3.30;;;;;;;21.68;50.49;101172.58;1657739;86;21553;-46
2021/05/06 14:44:11;;;;;;;5.78;2.10;;;;;;;21.48;50.92;101176.91;1743078;82;22293;-46
2021/05/06 14:46:39;;;;;;;11.18;2.70;;;;;;;21.42;51.23;101171.52;1741564;82;21314;-50
2021/05/06 14:49:07;;;;;;;5.70;2.45;;;;;;;21.42;51.23;101173.31;1743136;82;21122;-49
2021/05/06 14:51:36;;;;;;;9.35;2.58;;;;;;;21.51;51.01;101167.48;1658447;86;21349;-48
2021/05/06 14:54:05;;;;;;;10.95;2.87;;;;;;;21.62;50.74;101171.17;1742888;82;21156;-46
2021/05/06 14:56:33;;;;;;;7.87;2.70;;;;;;;21.61;50.60;101179.22;1742808;82;21164;-52
2021/05/06 14:59:03;;;;;;;11.20;2.55;;;;;;;21.60;50.60;101184.11;1742053;82;21181;-52
2021/05/06 15:01:35;;;;;;;5.67;2.30;;;;;;;21.52;50.70;101186.37;1657948;85;21727;-48
2021/05/06 15:04:04;;;;;;;6.80;2.33;;;;;;;21.54;50.58;101189.31;1741795;82;21283;-48
2021/05/06 15:06:34;;;;;;;8.90;2.90;;;;;;;21.51;50.62;101193.95;1741601;82;21137;-49
2021/05/06 15:09:05;;;;;;;6.33;2.50;;;;;;;21.46;50.79;101191.58;1765651;80;21156;-49
2021/05/06 15:11:35;;;;;;;9.18;2.52;;;;;;;21.45;50.86;101186.38;1768721;81;21176;-46
2021/05/06 15:14:06;;;;;;;10.20;2.65;;;;;;;21.48;50.76;101175.59;1666007;85;21680;-46
2021/05/06 15:16:34;;;;;;;8.75;2.80;;;;;;;21.42;50.86;101174.17;1660100;86;21601;-46
2021/05/06 15:19:03;;;;;;;10.15;2.80;;;;;;;21.40;50.84;101186.65;1665783;86;21212;-47
2021/05/06 15:21:31;;;;;;;10.82;2.67;;;;;;;21.36;50.95;101188.24;1665863;85;21259;-48
2021/05/06 15:24:00;;;;;;;9.85;3.10;;;;;;;21.34;50.97;101183.51;1665711;86;21322;-49
2021/05/06 15:26:27;;;;;;;8.93;3.42;;;;;;;21.30;51.02;101189.93;1665998;86;21172;-45
2021/05/06 15:28:56;;;;;;;8.28;2.90;;;;;;;21.26;51.19;101189.73;1665812;86;21176;-47